Time;durP1;ratioP1;P1;durP2;ratioP2;P2;SDS_P1;SDS_P2;PMS_P1;PMS_P2;Temp;Humidity;BMP_temperature;BMP_pressure;BME280_temperature;BME280_humidity;BME280_pressure;Samples;Min_cycle;Max_cycle;Signal;HPM_P1;HPM_P2
2021/01/05 00:01:40;;;;;;;169.50;25.85;;;;;;;0.51;100.00;97513.53;4977560;28;20505;-78
2021/01/05 00:04:07;;;;;;;148.13;24.42;;;;;;;0.49;100.00;97512.19;4995442;28;20050;-78
2021/01/05 00:06:33;;;;;;;241.48;27.95;;;;;;;0.41;100.00;97508.09;4993872;28;20047;-78
2021/01/05 00:09:03;;;;;;;144.55;25.17;;;;;;;0.48;100.00;97507.91;4994174;28;20520;-78
2021/01/05 00:11:29;;;;;;;203.75;26.13;;;;;;;0.50;100.00;97503.94;4993883;28;20560;-78
2021/01/05 00:13:58;;;;;;;166.93;24.33;;;;;;;0.58;100.00;97506.13;4975105;28;20109;-78
2021/01/05 00:16:28;;;;;;;546.00;31.45;;;;;;;0.23;100.00;97503.16;5007312;28;20848;-79
2021/01/05 00:18:54;;;;;;;132.77;26.15;;;;;;;0.45;100.00;97508.41;4992742;28;20053;-79
2021/01/05 00:21:25;;;;;;;118.47;24.73;;;;;;;0.53;100.00;97507.94;4992495;28;20050;-79
2021/01/05 00:23:51;;;;;;;146.38;25.17;;;;;;;0.59;100.00;97505.06;4990932;28;20106;-78
2021/01/05 00:26:18;;;;;;;122.32;24.50;;;;;;;0.54;100.00;97513.00;5007428;28;20501;-78
2021/01/05 00:28:45;;;;;;;191.85;26.85;;;;;;;0.59;100.00;97517.59;4992689;28;20042;-77
2021/01/05 00:31:11;;;;;;;111.80;24.55;;;;;;;0.54;100.00;97501.56;4993184;28;20057;-78
2021/01/05 00:33:38;;;;;;;168.38;25.10;;;;;;;0.59;100.00;97518.38;5008662;28;20490;-78
2021/01/05 00:36:06;;;;;;;180.88;26.38;;;;;;;0.59;100.00;97509.59;4993994;28;20098;-79
2021/01/05 00:38:32;;;;;;;201.48;25.10;;;;;;;0.55;100.00;97511.16;4992004;28;20512;-78
2021/01/05 00:40:58;;;;;;;202.23;25.50;;;;;;;0.54;100.00;97509.56;4994854;28;20054;-78
2021/01/05 00:43:26;;;;;;;120.65;24.40;;;;;;;0.62;100.00;97519.72;4980192;28;20042;-79
2021/01/05 00:45:53;;;;;;;207.70;25.92;;;;;;;0.55;100.00;97505.81;4995119;28;20537;-79
2021/01/05 00:48:20;;;;;;;233.55;24.85;;;;;;;0.41;100.00;97491.34;4998808;28;20121;-78
2021/01/05 00:50:46;;;;;;;173.57;25.38;;;;;;;0.47;100.00;97506.28;4982347;28;20051;-79
2021/01/05 00:53:13;;;;;;;233.95;25.50;;;;;;;0.41;100.00;97502.00;5001800;28;20037;-78
2021/01/05 00:55:39;;;;;;;169.35;25.48;;;;;;;0.29;100.00;97504.00;5000587;28;20142;-78
2021/01/05 00:58:06;;;;;;;89.40;23.90;;;;;;;0.41;100.00;97508.09;5018585;28;20735;-78
2021/01/05 01:00:33;;;;;;;87.15;23.15;;;;;;;0.41;100.00;97505.44;5017389;28;20128;-78
2021/01/05 01:03:00;;;;;;;101.50;23.40;;;;;;;0.34;100.00;97517.34;5018727;28;20153;-78
2021/01/05 01:05:26;;;;;;;79.00;23.92;;;;;;;0.28;100.00;97510.38;5020073;28;20049;-76
2021/01/05 01:07:53;;;;;;;69.20;21.27;;;;;;;0.31;100.00;97520.53;5022151;28;20050;-78
2021/01/05 01:10:19;;;;;;;111.55;21.45;;;;;;;0.37;100.00;97522.19;5016180;28;20042;-79
2021/01/05 01:12:45;;;;;;;80.50;21.88;;;;;;;0.35;100.00;97519.78;5017786;28;20045;-78
2021/01/05 01:15:13;;;;;;;122.88;23.42;;;;;;;0.36;100.00;97525.91;5017675;28;20050;-78
2021/01/05 01:17:40;;;;;;;175.80;24.35;;;;;;;0.26;100.00;97528.47;5000227;28;20114;-79
2021/01/05 01:20:07;;;;;;;242.25;27.35;;;;;;;0.14;100.00;97531.28;4999504;28;20045;-78
2021/01/05 01:22:36;;;;;;;115.55;23.30;;;;;;;0.30;100.00;97517.06;5019923;28;20057;-78
2021/01/05 01:25:07;;;;;;;125.63;24.05;;;;;;;0.39;100.00;97536.03;5019279;28;20120;-78
2021/01/05 01:27:34;;;;;;;116.00;25.25;;;;;;;0.37;100.00;97540.81;4983115;28;20208;-79
2021/01/05 01:30:01;;;;;;;148.30;25.73;;;;;;;0.21;100.00;97531.06;4998392;28;20050;-79
2021/01/05 01:32:29;;;;;;;121.68;24.13;;;;;;;0.34;100.00;97517.34;4985275;28;20134;-79
2021/01/05 01:34:56;;;;;;;122.15;24.48;;;;;;;0.39;100.00;97520.06;4998842;28;20100;-77
2021/01/05 01:37:24;;;;;;;169.52;26.67;;;;;;;0.20;100.00;97521.50;4998610;28;20038;-78
2021/01/05 01:42:40;;;;;;;112.77;24.10;;;;;;;0.18;100.00;97494.31;5007701;28;20429;-76
2021/01/05 01:45:28;;;;;;;93.70;23.30;;;;;;;0.17;100.00;97490.84;5004669;28;20109;-78
2021/01/05 01:48:01;;;;;;;80.43;23.38;;;;;;;0.29;100.00;97506.66;4979531;28;20050;-78
2021/01/05 01:50:36;;;;;;;70.20;22.38;;;;;;;0.22;100.00;97485.56;4980561;28;20054;-78
2021/01/05 01:53:21;;;;;;;49.10;15.77;;;;;;;0.42;100.00;97509.72;4996454;28;20049;-79
2021/01/05 01:56:07;;;;;;;62.92;21.23;;;;;;;0.24;100.00;97477.31;4981509;28;20067;-78
2021/01/05 01:58:54;;;;;;;58.78;21.10;;;;;;;0.43;100.00;97507.88;4982492;28;20050;-77
2021/01/05 02:01:54;;;;;;;56.50;18.98;;;;;;;0.44;100.00;97498.84;4983399;28;20164;-78
2021/01/05 02:05:03;;;;;;;53.75;19.48;;;;;;;0.45;100.00;97493.25;4982621;28;20405;-78
2021/01/05 02:08:25;;;;;;;59.45;20.73;;;;;;;0.45;100.00;97503.09;4995398;28;20038;-78
2021/01/05 02:11:02;;;;;;;108.22;21.17;;;;;;;0.48;100.00;97491.94;4990761;28;20061;-78
2021/01/05 02:14:19;;;;;;;;;;;;;;;;;;;;;
2021/01/05 02:17:50;;;;;;;100.13;20.35;;;;;;;0.44;100.00;97498.84;4994205;28;20145;-78
2021/01/05 02:21:22;;;;;;;112.50;20.73;;;;;;;0.34;100.00;97494.19;4994778;28;20130;-78
2021/01/05 02:24:03;;;;;;;75.47;21.40;;;;;;;0.42;100.00;97503.59;4973931;28;20050;-78
2021/01/05 02:26:56;;;;;;;122.97;22.23;;;;;;;0.28;100.00;97492.56;4979381;28;20145;-78
2021/01/05 02:30:01;;;;;;;201.23;23.27;;;;;;;0.15;100.00;97495.63;4975601;28;20228;-78
2021/01/05 02:32:42;;;;;;;99.20;22.02;;;;;;;0.24;100.00;97485.31;4996582;28;20146;-78
2021/01/05 02:36:06;;;;;;;204.65;22.83;;;;;;;0.14;100.00;97494.00;4996787;28;20038;-79
2021/01/05 02:39:20;;;;;;;236.07;23.13;;;;;;;0.12;100.00;97479.34;4960726;28;20466;-78
2021/01/05 02:42:37;;;;;;;135.23;20.45;;;;;;;0.03;100.00;97475.56;4955455;28;20104;-78
2021/01/05 02:45:15;;;;;;;214.25;23.40;;;;;;;0.10;100.00;97486.78;4994619;28;20414;-78
2021/01/05 02:48:04;;;;;;;110.40;21.30;;;;;;;0.25;100.00;97489.59;4995572;28;20108;-78
2021/01/05 02:50:30;;;;;;;156.75;20.38;;;;;;;0.28;100.00;97494.41;4978034;28;20051;-77
2021/01/05 02:53:14;;;;;;;156.95;21.10;;;;;;;0.28;100.00;97489.91;4962098;28;20042;-78
2021/01/05 02:56:05;;;;;;;198.55;23.13;;;;;;;0.23;100.00;97492.53;4962498;28;20051;-77
2021/01/05 02:58:31;;;;;;;111.82;20.80;;;;;;;0.25;100.00;97486.94;4978345;28;20529;-78
2021/01/05 03:01:24;;;;;;;99.88;21.55;;;;;;;0.34;100.00;97485.41;4977556;28;20042;-78
2021/01/05 03:03:51;;;;;;;111.82;22.27;;;;;;;0.29;100.00;97486.16;4970228;28;20058;-77
2021/01/05 03:06:21;;;;;;;161.48;22.67;;;;;;;0.04;100.00;97475.28;4961674;28;20068;-78
2021/01/05 03:09:12;;;;;;;118.65;22.80;;;;;;;0.23;100.00;97483.72;4960956;28;20148;-78
2021/01/05 03:12:03;;;;;;;294.85;24.88;;;;;;;0.18;100.00;97484.47;4976754;28;20065;-78
2021/01/05 03:15:16;;;;;;;271.63;25.67;;;;;;;0.04;100.00;97474.47;4995636;28;20045;-78
2021/01/05 03:17:56;;;;;;;142.75;23.98;;;;;;;0.13;100.00;97478.31;4947495;28;20140;-78
2021/01/05 03:20:32;;;;;;;261.17;26.35;;;;;;;0.13;100.00;97467.66;4997785;28;20449;-78
2021/01/05 03:23:04;;;;;;;109.47;22.13;;;;;;;0.09;100.00;97477.19;4963575;28;20055;-78
2021/01/05 03:25:35;;;;;;;279.15;26.85;;;;;;;0.14;100.00;97483.38;4980561;28;20046;-78
2021/01/05 03:28:05;;;;;;;163.32;25.02;;;;;;;0.19;100.00;97479.94;4997481;28;20054;-78
2021/01/05 03:30:31;;;;;;;178.48;25.30;;;;;;;0.18;100.00;97475.69;4987995;28;20119;-78
2021/01/05 03:32:59;;;;;;;173.60;25.10;;;;;;;0.23;100.00;97483.72;4976381;28;20069;-78
2021/01/05 03:35:27;;;;;;;111.03;22.80;;;;;;;0.26;100.00;97469.91;4960652;28;20061;-79
2021/01/05 03:37:55;;;;;;;197.50;26.98;;;;;;;0.20;100.00;97477.06;4961142;28;20038;-78
2021/01/05 03:40:22;;;;;;;291.45;26.80;;;;;;;0.16;100.00;97488.44;4994054;28;20053;-78
2021/01/05 03:42:48;;;;;;;200.73;25.13;;;;;;;0.25;100.00;97476.28;4949247;28;20417;-78
2021/01/05 03:45:19;;;;;;;164.13;23.63;;;;;;;0.23;100.00;97479.22;4962025;28;20441;-77
2021/01/05 03:47:46;;;;;;;145.10;23.75;;;;;;;0.32;100.00;97476.88;4990618;28;20050;-79
2021/01/05 03:50:13;;;;;;;183.65;24.10;;;;;;;0.22;100.00;97474.13;4942466;28;20050;-77
2021/01/05 03:52:39;;;;;;;165.50;24.42;;;;;;;0.32;100.00;97476.88;4974409;28;20042;-77
2021/01/05 03:55:07;;;;;;;176.98;25.00;;;;;;;0.35;100.00;97479.84;4973468;28;20050;-77
2021/01/05 03:57:35;;;;;;;175.52;24.20;;;;;;;0.37;100.00;97474.25;4991740;28;20073;-78
2021/01/05 04:00:05;;;;;;;138.20;24.65;;;;;;;0.37;100.00;97476.91;4990859;28;20669;-77
2021/01/05 04:02:32;;;;;;;137.43;23.77;;;;;;;0.36;100.00;97473.44;4958249;28;20050;-77
2021/01/05 04:04:58;;;;;;;166.50;25.33;;;;;;;0.21;100.00;97475.97;4957473;28;20050;-76
2021/01/05 04:07:25;;;;;;;144.98;23.40;;;;;;;0.22;100.00;97476.78;4991135;28;20050;-77
2021/01/05 04:09:53;;;;;;;104.47;23.98;;;;;;;0.24;100.00;97459.50;4990552;28;20120;-77
2021/01/05 04:12:22;;;;;;;116.28;23.13;;;;;;;0.36;100.00;97470.78;4974089;28;20045;-77
2021/01/05 04:14:49;;;;;;;218.73;26.75;;;;;;;0.29;100.00;97467.53;4974603;28;20120;-78
2021/01/05 04:17:15;;;;;;;129.88;24.15;;;;;;;0.41;100.00;97465.50;4980615;28;20046;-78
2021/01/05 04:19:43;;;;;;;120.90;25.17;;;;;;;0.47;100.00;97467.16;4981081;28;20034;-77
2021/01/05 04:22:09;;;;;;;125.50;23.30;;;;;;;0.39;100.00;97472.94;4963533;28;20505;-78
2021/01/05 04:24:35;;;;;;;115.45;21.85;;;;;;;0.34;100.00;97480.06;4996907;28;20141;-78
2021/01/05 04:27:01;;;;;;;234.18;25.58;;;;;;;0.22;100.00;97482.91;4964123;28;20082;-77
2021/01/05 04:29:28;;;;;;;114.53;24.40;;;;;;;0.28;100.00;97470.47;4979855;28;20047;-78
2021/01/05 04:31:57;;;;;;;140.82;23.55;;;;;;;0.37;100.00;97466.25;4980796;28;20046;-77
2021/01/05 04:34:24;;;;;;;273.85;26.42;;;;;;;0.22;100.00;97474.94;4980893;28;20093;-78
2021/01/05 04:36:51;;;;;;;105.85;24.73;;;;;;;0.37;100.00;97479.56;4963584;28;20136;-76
2021/01/05 04:39:18;;;;;;;246.70;26.15;;;;;;;0.33;100.00;97481.16;4997798;28;20046;-78
2021/01/05 04:42:02;;;;;;;158.68;24.65;;;;;;;0.38;100.00;97481.19;5000198;28;20588;-79
2021/01/05 04:44:48;;;;;;;199.57;25.70;;;;;;;0.32;100.00;97479.53;5002079;28;20050;-78
2021/01/05 04:47:34;;;;;;;159.38;25.35;;;;;;;0.43;100.00;97483.91;4964763;28;20079;-78
2021/01/05 04:50:03;;;;;;;129.07;23.95;;;;;;;0.38;100.00;97490.00;4981230;28;20450;-78
2021/01/05 04:52:46;;;;;;;94.85;23.42;;;;;;;0.40;100.00;97484.41;5001368;28;20049;-78
2021/01/05 04:55:25;;;;;;;188.23;26.08;;;;;;;0.30;100.00;97481.66;4984195;28;20042;-78
2021/01/05 04:58:02;;;;;;;242.85;27.73;;;;;;;0.25;100.00;97479.75;4967309;28;20081;-78
2021/01/05 05:00:29;;;;;;;165.70;25.10;;;;;;;0.31;100.00;97484.03;4999983;28;20161;-78
2021/01/05 05:03:16;;;;;;;155.95;26.85;;;;;;;0.40;100.00;97487.88;4969054;28;20466;-78
2021/01/05 05:05:57;;;;;;;295.30;27.15;;;;;;;0.33;100.00;97484.63;5001409;28;20049;-79
2021/01/05 05:08:37;;;;;;;186.52;24.23;;;;;;;0.25;100.00;97489.59;4984523;28;20042;-78
2021/01/05 05:11:09;;;;;;;122.28;24.30;;;;;;;0.40;100.00;97487.88;5001612;28;20050;-79
2021/01/05 05:14:04;;;;;;;206.32;24.88;;;;;;;0.36;100.00;97486.75;5000732;28;20031;-79
2021/01/05 05:16:50;;;;;;;173.45;24.98;;;;;;;0.22;100.00;97488.25;4964532;28;20077;-78
2021/01/05 05:19:34;;;;;;;333.25;29.52;;;;;;;0.28;100.00;97481.91;4964883;28;20410;-78
2021/01/05 05:22:38;;;;;;;191.38;24.55;;;;;;;0.37;100.00;97484.91;4996830;28;20046;-78
2021/01/05 05:25:15;;;;;;;265.30;27.15;;;;;;;0.31;100.00;97489.38;4963593;28;20042;-78
2021/01/05 05:27:58;;;;;;;200.95;27.45;;;;;;;0.41;100.00;97488.69;4976135;28;20325;-77
2021/01/05 05:30:34;;;;;;;222.20;27.45;;;;;;;0.45;100.00;97484.44;4993541;28;20470;-77
2021/01/05 05:33:05;;;;;;;119.90;24.40;;;;;;;0.41;100.00;97497.44;4976309;28;20050;-78
2021/01/05 05:35:38;;;;;;;123.55;25.00;;;;;;;0.43;100.00;97494.56;4960745;28;20046;-78
2021/01/05 05:38:22;;;;;;;167.65;26.80;;;;;;;0.48;100.00;97492.72;4995209;28;20034;-78
2021/01/05 05:41:11;;;;;;;302.95;28.80;;;;;;;0.37;100.00;97501.69;4990406;28;20068;-78
2021/01/05 05:43:56;;;;;;;141.23;24.08;;;;;;;0.44;100.00;97501.50;4951662;29;20063;-78
2021/01/05 05:46:45;;;;;;;242.45;28.30;;;;;;;0.44;100.00;97499.59;4935737;29;20039;-78
2021/01/05 05:49:35;;;;;;;182.75;25.15;;;;;;;0.52;100.00;97499.16;4955116;28;20051;-77
2021/01/05 05:52:05;;;;;;;222.52;26.15;;;;;;;0.47;100.00;97501.78;4938308;29;20496;-78
2021/01/05 05:54:34;;;;;;;170.27;26.85;;;;;;;0.47;100.00;97498.28;4938185;29;20070;-78
2021/01/05 05:57:11;;;;;;;138.15;24.58;;;;;;;0.48;100.00;97503.38;4954571;28;20043;-78
2021/01/05 05:59:43;;;;;;;197.80;26.63;;;;;;;0.41;100.00;97499.34;4938353;29;20053;-78
2021/01/05 06:02:19;;;;;;;205.98;25.92;;;;;;;0.43;100.00;97503.34;4936709;29;20043;-78
2021/01/05 06:04:47;;;;;;;141.70;26.60;;;;;;;0.37;100.00;97503.53;4957909;28;20057;-78
2021/01/05 06:07:13;;;;;;;104.90;25.23;;;;;;;0.40;100.00;97508.38;4958513;28;20498;-79
2021/01/05 06:09:41;;;;;;;137.15;25.88;;;;;;;0.39;100.00;97510.22;4943713;28;20092;-79
2021/01/05 06:12:10;;;;;;;284.92;29.35;;;;;;;0.19;100.00;97502.03;4976331;28;20045;-78
2021/01/05 06:14:36;;;;;;;130.32;27.60;;;;;;;0.38;100.00;97513.16;4960508;28;20159;-78
2021/01/05 06:17:03;;;;;;;165.18;26.52;;;;;;;0.46;100.00;97515.34;4979854;28;20133;-78
2021/01/05 06:19:29;;;;;;;128.52;25.70;;;;;;;0.46;100.00;97512.69;4945946;28;20466;-78
2021/01/05 06:21:55;;;;;;;144.52;26.75;;;;;;;0.52;100.00;97520.44;4975694;28;20537;-78
2021/01/05 06:24:23;;;;;;;125.43;25.63;;;;;;;0.52;100.00;97516.97;4977586;28;20047;-78
2021/01/05 06:26:49;;;;;;;168.93;26.13;;;;;;;0.48;100.00;97515.91;4947463;28;20046;-78
2021/01/05 06:29:15;;;;;;;229.70;27.80;;;;;;;0.36;100.00;97521.38;4959678;28;20046;-78
2021/01/05 06:31:42;;;;;;;204.15;26.73;;;;;;;0.45;100.00;97519.88;4964648;28;20053;-78
2021/01/05 06:34:08;;;;;;;148.70;25.05;;;;;;;0.49;100.00;97518.28;4946361;28;20046;-78
2021/01/05 06:36:36;;;;;;;101.30;23.88;;;;;;;0.50;100.00;97516.44;4952909;28;20042;-78
2021/01/05 06:39:06;;;;;;;325.00;30.08;;;;;;;0.30;100.00;97526.91;4947697;28;20049;-78
2021/01/05 06:41:33;;;;;;;169.95;26.50;;;;;;;0.40;100.00;97530.47;4984891;28;20070;-77
2021/01/05 06:43:59;;;;;;;223.75;27.50;;;;;;;0.45;100.00;97519.06;4969697;28;20054;-78
2021/01/05 06:46:31;;;;;;;144.23;24.42;;;;;;;0.53;100.00;97516.75;4975996;28;20506;-77
2021/01/05 06:48:58;;;;;;;139.20;24.58;;;;;;;0.51;100.00;97520.72;4958872;28;20050;-78
2021/01/05 06:51:24;;;;;;;245.88;25.92;;;;;;;0.47;100.00;97522.25;4960087;28;20046;-78
2021/01/05 06:53:50;;;;;;;144.35;24.90;;;;;;;0.51;100.00;97526.03;4975847;28;20062;-77
2021/01/05 06:56:16;;;;;;;184.20;25.85;;;;;;;0.40;100.00;97527.00;4959585;28;20093;-78
2021/01/05 06:58:49;;;;;;;155.32;24.65;;;;;;;0.47;100.00;97532.91;4965230;28;20057;-78
2021/01/05 07:01:17;;;;;;;209.82;26.60;;;;;;;0.30;100.00;97533.03;4996057;28;20517;-78
2021/01/05 07:03:43;;;;;;;117.10;25.92;;;;;;;0.36;100.00;97539.22;4961805;28;20429;-77
2021/01/05 07:06:09;;;;;;;115.10;25.38;;;;;;;0.44;100.00;97533.44;4963808;28;20055;-79
2021/01/05 07:08:37;;;;;;;175.70;24.92;;;;;;;0.47;100.00;97528.41;4962194;28;20042;-78
2021/01/05 07:11:03;;;;;;;127.22;23.85;;;;;;;0.52;100.00;97525.78;4944972;28;20090;-78
2021/01/05 07:13:29;;;;;;;99.20;23.08;;;;;;;0.60;100.00;97532.50;4976753;28;20581;-78
2021/01/05 07:15:57;;;;;;;148.43;24.70;;;;;;;0.50;100.00;97535.06;4996403;28;20093;-78
2021/01/05 07:18:24;;;;;;;158.27;25.20;;;;;;;0.59;100.00;97528.25;4968854;28;20087;-78
2021/01/05 07:20:58;;;;;;;139.77;24.50;;;;;;;0.65;100.00;97537.88;4971512;28;20062;-78
2021/01/05 07:23:25;;;;;;;120.82;23.67;;;;;;;0.61;100.00;97537.59;4969863;28;20070;-78
2021/01/05 07:25:51;;;;;;;131.40;25.02;;;;;;;0.63;100.00;97547.97;4987656;28;20046;-78
2021/01/05 07:28:20;;;;;;;105.82;24.85;;;;;;;0.66;100.00;97539.47;4987989;28;20038;-79
2021/01/05 07:30:47;;;;;;;197.07;24.67;;;;;;;0.61;100.00;97536.78;4958839;28;20070;-78
2021/01/05 07:33:15;;;;;;;119.75;25.42;;;;;;;0.60;100.00;97541.28;4954831;28;20486;-78
2021/01/05 07:35:43;;;;;;;172.77;25.60;;;;;;;0.63;100.00;97537.31;4965981;28;20526;-79
2021/01/05 07:38:13;;;;;;;226.95;26.48;;;;;;;0.62;100.00;97538.38;4985328;28;20092;-77
2021/01/05 07:40:39;;;;;;;169.55;24.70;;;;;;;0.62;100.00;97536.50;5013115;23;20052;-78
2021/01/05 07:43:05;;;;;;;135.55;24.35;;;;;;;0.57;100.00;97531.16;5016690;28;20095;-77
2021/01/05 07:45:31;;;;;;;230.90;25.40;;;;;;;0.53;100.00;97531.91;5032672;28;20041;-77
2021/01/05 07:47:58;;;;;;;255.10;26.45;;;;;;;0.58;100.00;97534.63;5032202;28;20041;-79
2021/01/05 07:50:26;;;;;;;125.57;24.35;;;;;;;0.62;100.00;97525.84;5032588;28;20056;-78
2021/01/05 07:52:54;;;;;;;149.35;23.48;;;;;;;0.67;100.00;97532.31;5034133;28;20061;-78
2021/01/05 07:55:25;;;;;;;160.35;25.13;;;;;;;0.59;100.00;97547.66;5031691;28;20072;-78
2021/01/05 07:57:54;;;;;;;159.23;24.30;;;;;;;0.56;100.00;97528.75;5030473;28;20060;-77
2021/01/05 08:00:26;;;;;;;114.32;23.90;;;;;;;0.62;100.00;97549.03;5016953;28;20041;-78
2021/01/05 08:02:54;;;;;;;234.73;25.55;;;;;;;0.59;100.00;97546.88;5030592;28;20061;-77
2021/01/05 08:05:24;;;;;;;144.70;25.38;;;;;;;0.61;100.00;97536.78;5030790;28;20053;-78
2021/01/05 08:07:51;;;;;;;144.93;26.23;;;;;;;0.66;100.00;97538.69;5030774;28;20048;-77
2021/01/05 08:10:29;;;;;;;156.45;25.48;;;;;;;0.67;100.00;97549.09;5029376;28;20053;-77
2021/01/05 08:12:56;;;;;;;136.18;24.52;;;;;;;0.72;100.00;97543.81;5018736;28;20437;-77
2021/01/05 08:15:25;;;;;;;92.70;23.48;;;;;;;0.69;100.00;97552.31;5030566;28;20148;-79
2021/01/05 08:17:52;;;;;;;82.35;22.52;;;;;;;0.58;100.00;97534.63;5031324;28;20041;-79
2021/01/05 08:20:23;;;;;;;64.80;22.92;;;;;;;0.66;100.00;97547.47;5029196;28;20049;-78
2021/01/05 08:22:49;;;;;;;72.70;21.98;;;;;;;0.71;100.00;97550.19;5010579;28;20041;-78
2021/01/05 08:25:17;;;;;;;66.07;21.23;;;;;;;0.60;100.00;97549.28;5029813;28;20049;-77
2021/01/05 08:27:47;;;;;;;65.25;20.10;;;;;;;0.72;100.00;97548.31;5031240;28;20051;-78
2021/01/05 08:30:23;;;;;;;59.15;19.65;;;;;;;0.65;100.00;97547.75;5009743;28;20136;-78
2021/01/05 08:32:50;;;;;;;61.05;19.98;;;;;;;0.72;100.00;97549.13;4993488;28;20045;-79
2021/01/05 08:35:19;;;;;;;57.15;18.77;;;;;;;0.71;100.00;97544.84;4997595;28;20050;-78
2021/01/05 08:37:48;;;;;;;62.53;18.65;;;;;;;0.74;100.00;97551.53;5013197;28;20068;-78
2021/01/05 08:40:21;;;;;;;77.38;19.00;;;;;;;0.75;100.00;97539.84;5025389;28;20049;-78
2021/01/05 08:42:47;;;;;;;70.25;18.73;;;;;;;0.77;100.00;97554.50;5025261;28;20041;-78
2021/01/05 08:45:15;;;;;;;54.28;18.35;;;;;;;0.76;100.00;97546.75;5027839;28;20050;-78
2021/01/05 08:47:41;;;;;;;63.17;18.45;;;;;;;0.73;100.00;97548.06;5031459;28;20041;-78
2021/01/05 08:50:13;;;;;;;60.58;18.83;;;;;;;0.80;100.00;97547.88;5029529;28;20050;-79
2021/01/05 08:52:40;;;;;;;60.42;18.83;;;;;;;0.79;100.00;97549.72;5023571;28;20037;-78
2021/01/05 08:55:10;;;;;;;61.88;18.40;;;;;;;0.86;100.00;97555.63;5018564;28;20076;-78
2021/01/05 08:57:37;;;;;;;99.43;18.58;;;;;;;0.81;100.00;97557.44;5033910;28;20100;-78
2021/01/05 09:00:08;;;;;;;96.22;18.00;;;;;;;0.79;100.00;97562.22;5021323;28;20045;-79
2021/01/05 09:02:36;;;;;;;80.05;18.55;;;;;;;0.77;100.00;97561.69;5016868;28;20045;-79
2021/01/05 09:05:02;;;;;;;132.98;19.52;;;;;;;0.74;100.00;97559.53;4992637;28;20045;-78
2021/01/05 09:07:29;;;;;;;150.68;19.55;;;;;;;0.68;100.00;97547.22;5034334;28;20059;-78
2021/01/05 09:09:55;;;;;;;197.55;19.25;;;;;;;0.78;100.00;97566.75;5029152;28;20037;-79
2021/01/05 09:12:23;;;;;;;151.25;19.40;;;;;;;0.77;100.00;97565.16;5000384;28;20037;-79
2021/01/05 09:14:49;;;;;;;142.05;21.75;;;;;;;0.76;100.00;97568.06;4999951;28;20053;-79
2021/01/05 09:17:16;;;;;;;163.43;21.52;;;;;;;0.70;100.00;97572.53;5034826;28;20504;-79
2021/01/05 09:19:43;;;;;;;131.50;20.08;;;;;;;0.70;100.00;97569.88;5032021;28;20172;-77
2021/01/05 09:22:10;;;;;;;172.38;20.10;;;;;;;0.69;100.00;97567.47;5031541;28;20397;-77
2021/01/05 09:24:37;;;;;;;180.35;21.08;;;;;;;0.73;100.00;97568.56;5030637;28;20069;-77
2021/01/05 09:27:03;;;;;;;174.23;20.27;;;;;;;0.66;100.00;97568.78;5031865;28;20099;-77
2021/01/05 09:29:31;;;;;;;118.90;19.58;;;;;;;0.66;100.00;97562.66;5037703;28;20041;-77
2021/01/05 09:31:57;;;;;;;175.30;20.42;;;;;;;0.67;100.00;97569.59;5035766;28;20049;-78
2021/01/05 09:34:25;;;;;;;107.53;19.13;;;;;;;0.66;100.00;97563.47;5036044;28;20042;-77
2021/01/05 09:36:54;;;;;;;131.77;19.25;;;;;;;0.68;100.00;97555.19;5009493;28;20077;-78
2021/01/05 09:39:23;;;;;;;136.45;21.20;;;;;;;0.78;100.00;97572.06;5041426;28;20513;-79
2021/01/05 09:41:56;;;;;;;108.63;19.52;;;;;;;0.67;100.00;97562.41;5015986;28;20075;-78
2021/01/05 09:44:26;;;;;;;196.07;20.45;;;;;;;0.60;100.00;97569.78;5026475;28;20037;-77
2021/01/05 09:46:57;;;;;;;110.65;19.10;;;;;;;0.71;100.00;97568.00;4998168;28;20295;-78
2021/01/05 09:49:26;;;;;;;136.55;20.00;;;;;;;0.74;100.00;97567.50;5032626;28;20124;-78
2021/01/05 09:52:00;;;;;;;175.77;20.05;;;;;;;0.77;100.00;97564.34;5031931;28;20068;-77
2021/01/05 09:54:29;;;;;;;133.13;18.33;;;;;;;0.76;100.00;97549.41;5032087;28;20052;-78
2021/01/05 09:56:56;;;;;;;144.70;18.55;;;;;;;0.79;100.00;97556.91;5013970;28;20041;-78
2021/01/05 09:59:28;;;;;;;97.90;18.83;;;;;;;0.86;100.00;97550.28;5032877;28;20041;-78
2021/01/05 10:01:55;;;;;;;108.40;18.40;;;;;;;0.84;100.00;97543.63;5014163;28;20045;-78
2021/01/05 10:04:25;;;;;;;117.40;18.80;;;;;;;0.94;100.00;97555.16;5032500;28;20368;-78
2021/01/05 10:06:52;;;;;;;92.13;18.10;;;;;;;0.77;100.00;97537.72;5031805;28;20041;-77
2021/01/05 10:09:20;;;;;;;87.90;17.77;;;;;;;0.84;100.00;97540.94;5031488;28;20041;-78
2021/01/05 10:11:47;;;;;;;112.55;18.73;;;;;;;0.78;100.00;97534.78;4998880;28;20116;-79
2021/01/05 10:14:17;;;;;;;135.70;18.23;;;;;;;0.77;100.00;97540.38;5031115;28;20125;-78
2021/01/05 10:16:43;;;;;;;78.35;17.40;;;;;;;0.72;100.00;97525.16;5033107;28;20439;-78
2021/01/05 10:19:13;;;;;;;127.22;18.90;;;;;;;0.82;100.00;97529.75;5032010;28;20042;-78
2021/01/05 10:21:42;;;;;;;117.38;18.20;;;;;;;0.81;100.00;97523.63;5032166;28;20468;-78
2021/01/05 10:24:12;;;;;;;133.02;17.88;;;;;;;0.81;100.00;97528.13;5032392;28;20038;-77
2021/01/05 10:26:39;;;;;;;110.85;18.67;;;;;;;0.81;100.00;97517.47;5015034;28;20136;-78
2021/01/05 10:29:07;;;;;;;117.40;19.33;;;;;;;0.87;100.00;97519.13;5033589;28;20048;-79
2021/01/05 10:31:39;;;;;;;119.72;18.92;;;;;;;0.71;100.00;97528.06;5032763;28;20052;-77
2021/01/05 10:34:09;;;;;;;124.63;18.58;;;;;;;0.73;100.00;97524.09;5030851;28;20064;-79
2021/01/05 10:36:37;;;;;;;111.70;19.17;;;;;;;0.79;100.00;97522.25;5031112;28;20063;-78
2021/01/05 10:39:08;;;;;;;106.97;19.45;;;;;;;0.76;100.00;97522.78;5024474;28;20053;-78
2021/01/05 10:41:37;;;;;;;86.40;18.38;;;;;;;0.80;100.00;97534.53;5008141;28;20385;-78
2021/01/05 10:44:04;;;;;;;147.30;19.90;;;;;;;0.78;100.00;97518.78;5025698;28;20040;-78
2021/01/05 10:46:31;;;;;;;125.28;19.42;;;;;;;0.80;100.00;97527.31;5032348;28;20120;-78
2021/01/05 10:48:59;;;;;;;111.57;18.58;;;;;;;0.79;100.00;97528.41;5031252;28;20458;-78
2021/01/05 10:51:25;;;;;;;79.40;18.75;;;;;;;0.92;100.00;97525.31;5032527;28;20080;-77
2021/01/05 10:53:53;;;;;;;103.72;18.33;;;;;;;0.87;100.00;97517.28;5032365;28;20527;-78
2021/01/05 10:56:20;;;;;;;81.22;18.98;;;;;;;0.87;100.00;97517.28;5014598;28;20456;-78
2021/01/05 10:58:46;;;;;;;58.15;17.38;;;;;;;0.99;100.00;97525.06;5029033;28;20504;-78
2021/01/05 11:01:13;;;;;;;53.33;18.15;;;;;;;0.98;100.00;97518.16;4978055;28;20046;-77
2021/01/05 11:03:39;;;;;;;42.58;15.70;;;;;;;1.03;100.00;97529.63;5014441;28;20073;-78
2021/01/05 11:06:06;;;;;;;32.03;14.30;;;;;;;1.08;100.00;97527.03;5030862;28;20489;-76
2021/01/05 11:08:34;;;;;;;35.22;13.73;;;;;;;1.07;100.00;97516.59;5014493;28;20386;-78
2021/01/05 11:11:01;;;;;;;27.77;12.02;;;;;;;1.18;100.00;97523.63;5032959;28;20046;-78
2021/01/05 11:13:28;;;;;;;29.05;13.15;;;;;;;1.12;100.00;97514.78;5032143;28;20042;-78
2021/01/05 11:15:55;;;;;;;33.08;13.00;;;;;;;1.27;100.00;97509.53;5032342;28;20042;-78
2021/01/05 11:18:21;;;;;;;29.73;12.93;;;;;;;1.15;100.00;97519.59;5032293;28;20859;-78
2021/01/05 11:20:48;;;;;;;26.25;12.23;;;;;;;1.24;100.00;97507.38;5032253;28;20049;-78
2021/01/05 11:23:14;;;;;;;31.10;12.90;;;;;;;1.34;100.00;97500.50;5021069;28;20045;-77
2021/01/05 11:25:41;;;;;;;25.10;12.00;;;;;;;1.21;100.00;97497.22;4976447;28;20050;-77
2021/01/05 11:28:14;;;;;;;31.40;13.20;;;;;;;1.25;100.00;97503.66;5012578;28;20037;-78
2021/01/05 11:30:43;;;;;;;29.13;12.65;;;;;;;1.16;100.00;97504.41;5030503;28;20052;-78
2021/01/05 11:33:09;;;;;;;29.55;13.80;;;;;;;1.18;100.00;97500.44;4992575;28;20459;-77
2021/01/05 11:35:36;;;;;;;30.13;13.35;;;;;;;1.02;100.00;97484.59;5012003;28;20060;-79
2021/01/05 11:38:03;;;;;;;34.60;15.00;;;;;;;0.91;100.00;97496.22;5013561;28;20501;-78